createdAt,value
2023-03-11T00:00:12.414Z,5.10
2023-03-11T00:01:12.449Z,6.20
2023-03-11T00:02:12.411Z,5.60
2023-03-11T00:03:12.368Z,6.00
2023-03-11T00:04:12.336Z,6.30
2023-03-11T00:05:12.416Z,6.50
2023-03-11T00:06:12.387Z,5.60
2023-03-11T00:07:12.320Z,6.20
2023-03-11T00:08:12.301Z,5.50
2023-03-11T00:09:12.312Z,6.50
2023-03-11T00:10:12.292Z,5.90
2023-03-11T00:11:12.298Z,6.30
2023-03-11T00:12:12.257Z,5.80
2023-03-11T00:13:12.290Z,6.40
2023-03-11T00:14:12.247Z,6.20
2023-03-11T00:15:12.234Z,6.20
2023-03-11T00:16:12.234Z,7.10
2023-03-11T00:17:12.244Z,6.40
2023-03-11T00:18:12.190Z,6.80
2023-03-11T00:19:12.189Z,5.90
2023-03-11T00:20:12.403Z,6.10
2023-03-11T00:21:12.275Z,7.10
2023-03-11T00:22:12.193Z,7.30
2023-03-11T00:23:12.142Z,6.70
2023-03-11T00:24:12.165Z,7.00
2023-03-11T00:25:12.135Z,7.50
2023-03-11T00:26:12.126Z,6.70
2023-03-11T00:27:12.092Z,8.30
2023-03-11T00:28:12.105Z,7.40
2023-03-11T00:29:12.079Z,6.20
2023-03-11T00:30:12.102Z,6.20
2023-03-11T00:31:12.109Z,5.60
2023-03-11T00:32:12.077Z,5.10
2023-03-11T00:33:12.061Z,5.80
2023-03-11T00:34:12.012Z,6.10
2023-03-11T00:35:12.035Z,5.60
2023-03-11T00:36:12.074Z,5.80
2023-03-11T00:37:11.972Z,5.60
2023-03-11T00:38:11.982Z,7.00
2023-03-11T00:39:11.972Z,4.90
2023-03-11T00:40:11.964Z,5.90
2023-03-11T00:41:11.936Z,4.60
2023-03-11T00:42:11.927Z,4.90
2023-03-11T00:43:11.944Z,4.90
2023-03-11T00:44:11.925Z,5.90
2023-03-11T00:45:11.889Z,5.50
2023-03-11T00:46:11.913Z,5.50
2023-03-11T00:47:11.864Z,5.10
2023-03-11T00:48:11.900Z,6.60
2023-03-11T00:49:11.873Z,5.00
2023-03-11T00:50:11.828Z,6.30
2023-03-11T00:51:11.818Z,5.70
2023-03-11T00:52:11.814Z,5.10
2023-03-11T00:53:11.789Z,5.80
2023-03-11T00:54:11.807Z,5.40
2023-03-11T00:55:11.814Z,5.90
2023-03-11T00:56:11.777Z,5.90
2023-03-11T00:57:11.751Z,6.10
2023-03-11T00:58:11.768Z,5.90
2023-03-11T00:59:11.759Z,5.90
2023-03-11T01:00:11.702Z,6.60
2023-03-11T01:01:11.743Z,6.50
2023-03-11T01:02:11.685Z,6.30
2023-03-11T01:03:11.681Z,6.20
2023-03-11T01:04:11.726Z,5.80
2023-03-11T01:05:11.690Z,5.20
2023-03-11T01:06:11.634Z,6.00
2023-03-11T01:07:11.665Z,5.40
2023-03-11T01:08:11.644Z,6.30
2023-03-11T01:09:11.646Z,6.70
2023-03-11T01:10:11.618Z,6.20
2023-03-11T01:11:11.590Z,5.70
2023-03-11T01:12:11.581Z,6.00
2023-03-11T01:13:11.586Z,5.10
2023-03-11T01:14:11.537Z,6.90
2023-03-11T01:15:11.570Z,6.90
2023-03-11T01:16:11.615Z,5.90
2023-03-11T01:17:11.505Z,6.60
2023-03-11T01:18:11.535Z,5.30
2023-03-11T01:19:11.503Z,6.70
2023-03-11T01:20:11.507Z,6.10
2023-03-11T01:21:11.471Z,6.00
2023-03-11T01:22:11.464Z,5.70
2023-03-11T01:23:11.451Z,5.50
2023-03-11T01:24:11.467Z,7.00
2023-03-11T01:25:11.421Z,6.50
2023-03-11T01:26:11.451Z,5.50
2023-03-11T01:27:11.403Z,6.30
2023-03-11T01:28:11.413Z,6.60
2023-03-11T01:29:11.369Z,5.20
2023-03-11T01:30:11.371Z,4.40
2023-03-11T01:31:11.457Z,5.00
2023-03-11T01:32:11.435Z,3.90
2023-03-11T01:33:11.345Z,5.00
2023-03-11T01:34:11.331Z,5.20
2023-03-11T01:35:11.335Z,6.20
2023-03-11T01:36:11.357Z,5.10
2023-03-11T01:37:11.281Z,5.60
2023-03-11T01:38:11.327Z,4.60
2023-03-11T01:39:11.258Z,4.40
2023-03-11T01:40:11.273Z,6.30
2023-03-11T01:41:11.228Z,5.10
2023-03-11T01:42:11.219Z,5.00
2023-03-11T01:43:11.230Z,4.70
2023-03-11T01:44:11.189Z,4.50
2023-03-11T01:45:11.215Z,3.90
2023-03-11T01:46:11.193Z,5.10
2023-03-11T01:47:11.183Z,5.30
2023-03-11T01:48:11.177Z,4.70
2023-03-11T01:49:11.167Z,4.30
2023-03-11T01:50:11.194Z,4.20
2023-03-11T01:51:11.119Z,4.10
2023-03-11T01:52:11.110Z,4.50
2023-03-11T01:53:11.110Z,3.60
2023-03-11T01:54:11.122Z,4.70
2023-03-11T01:55:11.074Z,4.00
2023-03-11T01:56:11.096Z,3.80
2023-03-11T01:57:11.062Z,3.90
2023-03-11T01:58:11.040Z,4.50
2023-03-11T01:59:11.073Z,4.20
2023-03-11T02:00:11.051Z,4.30
2023-03-11T02:01:11.017Z,5.10
2023-03-11T02:02:11.117Z,4.50
2023-03-11T02:03:11.079Z,5.20
2023-03-11T02:04:11.015Z,4.60
2023-03-11T02:05:10.996Z,4.20
2023-03-11T02:06:10.994Z,3.80
2023-03-11T02:07:10.939Z,3.90
2023-03-11T02:08:10.976Z,4.40
2023-03-11T02:09:10.911Z,4.20
2023-03-11T02:10:10.921Z,4.20
2023-03-11T02:11:10.906Z,4.20
2023-03-11T02:12:10.887Z,4.40
2023-03-11T02:13:10.923Z,5.10
2023-03-11T02:14:10.885Z,4.90
2023-03-11T02:15:10.878Z,4.40
2023-03-11T02:16:10.880Z,4.40
2023-03-11T02:17:10.836Z,4.10
2023-03-11T02:18:10.871Z,4.30
2023-03-11T02:19:10.823Z,4.50
2023-03-11T02:20:10.819Z,5.00
2023-03-11T02:21:10.803Z,4.50
2023-03-11T02:22:10.816Z,5.10
2023-03-11T02:23:10.816Z,4.40
2023-03-11T02:24:10.767Z,4.20
2023-03-11T02:25:10.740Z,4.80
2023-03-11T02:26:10.744Z,4.10
2023-03-11T02:27:10.769Z,4.00
2023-03-11T02:28:10.767Z,5.20
2023-03-11T02:29:10.757Z,4.70
2023-03-11T02:30:10.693Z,4.10
2023-03-11T02:31:10.876Z,5.10
2023-03-11T02:32:10.702Z,4.90
2023-03-11T02:33:10.649Z,4.00
2023-03-11T02:34:10.659Z,4.30
2023-03-11T02:35:10.669Z,3.90
2023-03-11T02:36:10.673Z,4.60
2023-03-11T02:37:10.608Z,4.20
2023-03-11T02:38:10.627Z,4.30
2023-03-11T02:39:10.587Z,4.30
2023-03-11T02:40:10.606Z,4.00
2023-03-11T02:41:10.590Z,4.30
2023-03-11T02:42:10.561Z,4.00
2023-03-11T02:43:10.556Z,4.50
2023-03-11T02:44:10.528Z,3.40
2023-03-11T02:45:10.565Z,3.50
2023-03-11T02:46:10.529Z,3.30
2023-03-11T02:47:10.508Z,4.50
2023-03-11T02:48:10.503Z,3.30
2023-03-11T02:49:10.500Z,3.40
2023-03-11T02:50:10.467Z,3.80
2023-03-11T02:51:10.487Z,3.50
2023-03-11T02:52:10.434Z,3.20
2023-03-11T02:53:10.456Z,4.30
2023-03-11T02:54:10.424Z,3.50
2023-03-11T02:55:10.407Z,2.60
2023-03-11T02:56:10.396Z,3.80
2023-03-11T02:57:10.394Z,3.90
2023-03-11T02:58:10.378Z,3.20
2023-03-11T02:59:10.384Z,3.50
2023-03-11T03:00:10.364Z,2.50
2023-03-11T03:01:10.394Z,2.90
2023-03-11T03:02:10.334Z,3.10
2023-03-11T03:03:10.316Z,2.90
2023-03-11T03:04:10.417Z,2.90
2023-03-11T03:05:10.293Z,3.00
2023-03-11T03:06:10.262Z,2.90
2023-03-11T03:07:10.252Z,2.90
2023-03-11T03:08:10.256Z,2.60
2023-03-11T03:09:10.294Z,2.80
2023-03-11T03:10:10.248Z,2.70
2023-03-11T03:11:10.236Z,3.70
2023-03-11T03:12:10.217Z,2.80
2023-03-11T03:13:10.228Z,2.90
2023-03-11T03:14:10.204Z,2.70
2023-03-11T03:15:10.163Z,2.60
2023-03-11T03:16:10.218Z,2.90
2023-03-11T03:17:10.430Z,3.00
2023-03-11T03:18:10.145Z,2.80
2023-03-11T03:19:10.185Z,2.90
2023-03-11T03:20:10.105Z,3.20
2023-03-11T03:21:10.098Z,2.60
2023-03-11T03:22:10.108Z,3.40
2023-03-11T03:23:10.074Z,2.80
2023-03-11T03:24:10.083Z,2.60
2023-03-11T03:25:10.097Z,3.20
2023-03-11T03:26:10.060Z,2.50
2023-03-11T03:27:10.026Z,2.90
2023-03-11T03:28:10.046Z,4.90
2023-03-11T03:29:10.044Z,3.10
2023-03-11T03:30:10.022Z,2.80
2023-03-11T03:31:10.034Z,2.70
2023-03-11T03:32:09.987Z,3.30
2023-03-11T03:33:09.981Z,2.60
2023-03-11T03:34:10.010Z,3.20
2023-03-11T03:35:09.958Z,2.60
2023-03-11T03:36:10.044Z,2.80
2023-03-11T03:37:09.951Z,2.60
2023-03-11T03:38:09.926Z,2.90
2023-03-11T03:39:09.919Z,2.90
2023-03-11T03:40:09.889Z,2.60
2023-03-11T03:41:09.894Z,2.90
2023-03-11T03:42:09.890Z,2.90
2023-03-11T03:43:09.882Z,2.60
2023-03-11T03:44:09.879Z,3.20
2023-03-11T03:45:09.844Z,3.90
2023-03-11T03:46:09.849Z,3.50
2023-03-11T03:47:09.815Z,2.50
2023-03-11T03:48:09.810Z,3.30
2023-03-11T03:49:09.782Z,2.90
2023-03-11T03:50:09.849Z,2.50
2023-03-11T03:51:09.778Z,3.20
2023-03-11T03:52:09.743Z,2.90
2023-03-11T03:53:09.733Z,3.00
2023-03-11T03:54:09.765Z,3.30
2023-03-11T03:55:09.740Z,2.80
2023-03-11T03:56:09.735Z,2.80
2023-03-11T03:57:09.695Z,2.20
2023-03-11T03:58:09.688Z,2.80
2023-03-11T03:59:09.668Z,2.80
2023-03-11T04:00:09.718Z,3.20
2023-03-11T04:01:09.682Z,3.20
2023-03-11T04:02:09.704Z,3.10
2023-03-11T04:03:09.661Z,2.70
2023-03-11T04:04:09.661Z,2.80
2023-03-11T04:05:09.618Z,3.70
2023-03-11T04:06:09.651Z,3.30
2023-03-11T04:07:09.592Z,3.30
2023-03-11T04:08:09.600Z,2.40
2023-03-11T04:09:09.573Z,3.10
2023-03-11T04:10:09.554Z,2.70
2023-03-11T04:11:09.615Z,2.70
2023-03-11T04:12:09.532Z,3.30
2023-03-11T04:13:09.529Z,3.20
2023-03-11T04:14:09.509Z,2.70
2023-03-11T04:15:09.523Z,3.60
2023-03-11T04:16:09.502Z,2.80
2023-03-11T04:17:09.564Z,2.70
2023-03-11T04:18:09.450Z,2.90
2023-03-11T04:19:09.474Z,2.60
2023-03-11T04:20:09.442Z,3.10
2023-03-11T04:21:09.449Z,2.20
2023-03-11T04:22:09.411Z,2.80
2023-03-11T04:23:09.460Z,3.00
2023-03-11T04:24:09.387Z,2.80
2023-03-11T04:25:09.405Z,2.50
2023-03-11T04:26:09.409Z,2.80
2023-03-11T04:27:09.360Z,2.60
2023-03-11T04:28:09.348Z,4.00
2023-03-11T04:29:09.369Z,2.70
2023-03-11T04:30:09.336Z,3.40
2023-03-11T04:31:09.329Z,2.40
2023-03-11T04:32:09.311Z,2.10
2023-03-11T04:33:09.334Z,2.50
2023-03-11T04:34:09.297Z,3.70
2023-03-11T04:35:09.304Z,2.60
2023-03-11T04:36:09.264Z,2.10
2023-03-11T04:37:09.233Z,2.40
2023-03-11T04:38:09.232Z,3.20
2023-03-11T04:39:09.245Z,2.70
2023-03-11T04:40:09.194Z,3.50
2023-03-11T04:41:09.241Z,2.60
2023-03-11T04:42:09.172Z,2.20
2023-03-11T04:43:09.176Z,2.40
2023-03-11T04:44:09.162Z,2.70
2023-03-11T04:45:09.134Z,3.20
2023-03-11T04:46:09.197Z,2.40
2023-03-11T04:47:09.153Z,3.10
2023-03-11T04:48:09.097Z,2.10
2023-03-11T04:49:09.106Z,2.50
2023-03-11T04:50:09.149Z,2.20
2023-03-11T04:51:09.074Z,2.00
2023-03-11T04:52:09.137Z,2.60
2023-03-11T04:53:09.059Z,2.30
2023-03-11T04:54:09.053Z,2.10
2023-03-11T04:55:09.032Z,4.80
2023-03-11T04:56:09.016Z,2.30
2023-03-11T04:57:09.012Z,2.40
2023-03-11T04:58:09.054Z,2.00
2023-03-11T04:59:08.987Z,3.00
2023-03-11T05:00:08.978Z,2.20
2023-03-11T05:01:09.024Z,1.70
2023-03-11T05:02:10.580Z,3.00
2023-03-11T05:03:08.976Z,4.90
2023-03-11T05:04:09.074Z,2.70
2023-03-11T05:05:08.957Z,3.00
2023-03-11T05:06:08.904Z,2.70
2023-03-11T05:07:08.912Z,2.60
2023-03-11T05:08:08.901Z,2.30
2023-03-11T05:09:08.914Z,2.50
2023-03-11T05:10:08.882Z,2.90
2023-03-11T05:11:08.844Z,3.60
2023-03-11T05:12:08.873Z,2.80
2023-03-11T05:13:08.814Z,2.50
2023-03-11T05:14:08.847Z,3.10
2023-03-11T05:15:08.816Z,1.70
2023-03-11T05:16:08.835Z,3.20
2023-03-11T05:17:08.792Z,3.10
2023-03-11T05:18:08.811Z,2.80
2023-03-11T05:19:08.758Z,3.50
2023-03-11T05:20:08.769Z,2.70
2023-03-11T05:21:08.738Z,2.90
2023-03-11T05:22:08.721Z,2.30
2023-03-11T05:23:08.716Z,3.40
2023-03-11T05:24:08.716Z,2.60
2023-03-11T05:25:08.722Z,2.60
2023-03-11T05:26:08.696Z,3.60
2023-03-11T05:27:08.678Z,4.20
2023-03-11T05:28:08.659Z,2.60
2023-03-11T05:29:08.665Z,2.20
2023-03-11T05:30:08.672Z,3.10
2023-03-11T05:31:08.675Z,2.50
2023-03-11T05:32:08.605Z,2.80
2023-03-11T05:33:08.604Z,2.80
2023-03-11T05:34:08.603Z,2.20
2023-03-11T05:35:08.611Z,3.50
2023-03-11T05:36:08.578Z,2.70
2023-03-11T05:37:08.554Z,3.10
2023-03-11T05:38:08.553Z,2.50
2023-03-11T05:39:08.565Z,4.20
2023-03-11T05:40:08.500Z,2.90
2023-03-11T05:41:08.536Z,1.80
2023-03-11T05:42:08.512Z,2.30
2023-03-11T05:43:08.495Z,2.40
2023-03-11T05:44:08.464Z,3.50
2023-03-11T05:45:08.484Z,4.20
2023-03-11T05:46:08.522Z,2.50
2023-03-11T05:47:08.424Z,2.80
2023-03-11T05:48:08.431Z,2.30
2023-03-11T05:49:08.421Z,3.70
2023-03-11T05:50:08.396Z,2.80
2023-03-11T05:51:08.463Z,2.60
2023-03-11T05:52:08.376Z,2.00
2023-03-11T05:53:08.370Z,2.20
2023-03-11T05:54:08.361Z,2.70
2023-03-11T05:55:08.336Z,3.30
2023-03-11T05:56:08.362Z,2.50
2023-03-11T05:57:08.367Z,2.30
2023-03-11T05:58:08.401Z,1.70
2023-03-11T05:59:08.358Z,3.40
2023-03-11T06:00:08.275Z,2.70
2023-03-11T06:01:08.279Z,1.80
2023-03-11T06:02:08.290Z,2.30
2023-03-11T06:03:08.249Z,3.30
2023-03-11T06:04:08.375Z,3.20
2023-03-11T06:05:08.722Z,2.30
2023-03-11T06:06:08.223Z,2.40
2023-03-11T06:07:08.225Z,4.20
2023-03-11T06:08:08.202Z,3.00
2023-03-11T06:09:08.213Z,3.20
2023-03-11T06:10:08.177Z,2.10
2023-03-11T06:11:08.174Z,2.50
2023-03-11T06:12:08.156Z,3.00
2023-03-11T06:13:08.125Z,3.40
2023-03-11T06:14:08.128Z,2.40
2023-03-11T06:15:08.139Z,2.90
2023-03-11T06:16:08.166Z,3.50
2023-03-11T06:17:08.119Z,3.70
2023-03-11T06:18:08.081Z,3.00
2023-03-11T06:19:08.100Z,2.80
2023-03-11T06:20:08.167Z,4.20
2023-03-11T06:21:08.045Z,2.10
2023-03-11T06:22:08.019Z,3.90
2023-03-11T06:23:08.018Z,3.30
2023-03-11T06:24:08.056Z,3.40
2023-03-11T06:25:08.031Z,2.60
2023-03-11T06:26:08.012Z,3.40
2023-03-11T06:27:07.965Z,4.40
2023-03-11T06:28:07.979Z,3.40
2023-03-11T06:29:07.951Z,1.90
2023-03-11T06:30:07.949Z,2.60
2023-03-11T06:31:08.062Z,3.30
2023-03-11T06:32:07.964Z,3.50
2023-03-11T06:33:07.897Z,2.10
2023-03-11T06:34:07.927Z,3.80
2023-03-11T06:35:07.878Z,3.90
2023-03-11T06:36:07.917Z,3.00
2023-03-11T06:37:07.880Z,3.10
2023-03-11T06:38:07.861Z,1.80
2023-03-11T06:39:07.873Z,3.00
2023-03-11T06:40:07.818Z,3.10
2023-03-11T06:41:07.858Z,2.10
2023-03-11T06:42:07.833Z,2.60
2023-03-11T06:43:07.804Z,4.60
2023-03-11T06:44:07.784Z,3.20
2023-03-11T06:45:07.817Z,3.80
2023-03-11T06:46:07.837Z,3.30
2023-03-11T06:47:07.773Z,3.50
2023-03-11T06:48:07.743Z,3.10
2023-03-11T06:49:07.717Z,5.10
2023-03-11T06:50:07.713Z,3.30
2023-03-11T06:51:07.710Z,2.70
2023-03-11T06:52:07.683Z,3.90
2023-03-11T06:53:07.691Z,4.00
2023-03-11T06:54:07.642Z,4.10
2023-03-11T06:55:07.657Z,7.40
2023-03-11T06:56:07.680Z,4.30
2023-03-11T06:57:07.617Z,3.80
2023-03-11T06:58:07.632Z,5.40
2023-03-11T06:59:07.615Z,3.80
2023-03-11T07:00:07.584Z,2.70
2023-03-11T07:01:07.655Z,3.00
2023-03-11T07:02:07.602Z,5.60
2023-03-11T07:03:07.559Z,2.80
2023-03-11T07:04:07.578Z,4.50
2023-03-11T07:05:07.582Z,4.70
2023-03-11T07:06:07.503Z,4.00
2023-03-11T07:07:07.514Z,3.90
2023-03-11T07:08:07.498Z,6.70
2023-03-11T07:09:07.475Z,4.40
2023-03-11T07:10:07.493Z,4.30
2023-03-11T07:11:07.454Z,4.70
2023-03-11T07:12:07.463Z,5.20
2023-03-11T07:13:07.447Z,3.80
2023-03-11T07:14:07.438Z,3.10
2023-03-11T07:15:07.457Z,4.40
2023-03-11T07:16:07.488Z,4.60
2023-03-11T07:17:07.409Z,3.70
2023-03-11T07:18:07.394Z,5.10
2023-03-11T07:19:07.356Z,3.00
2023-03-11T07:20:07.409Z,4.70
2023-03-11T07:21:07.361Z,4.30
2023-03-11T07:22:07.367Z,4.30
2023-03-11T07:23:07.322Z,4.80
2023-03-11T07:24:07.317Z,4.90
2023-03-11T07:25:07.303Z,4.60
2023-03-11T07:26:07.332Z,7.40
2023-03-11T07:27:07.291Z,4.30
2023-03-11T07:28:07.283Z,4.10
2023-03-11T07:29:07.263Z,4.20
2023-03-11T07:30:07.273Z,5.20
2023-03-11T07:31:07.253Z,6.00
2023-03-11T07:32:07.342Z,3.40
2023-03-11T07:33:07.216Z,11.70
2023-03-11T07:34:07.201Z,10.50
2023-03-11T07:35:07.200Z,11.80
2023-03-11T07:36:07.235Z,7.70
2023-03-11T07:37:07.160Z,7.10
2023-03-11T07:38:07.172Z,10.50
2023-03-11T07:39:07.175Z,5.50
2023-03-11T07:40:07.135Z,2.90
2023-03-11T07:41:07.147Z,6.30
2023-03-11T07:42:07.118Z,6.10
2023-03-11T07:43:07.134Z,4.10
2023-03-11T07:44:08.769Z,3.80
2023-03-11T07:45:07.103Z,3.30
2023-03-11T07:46:07.110Z,5.40
2023-03-11T07:47:07.065Z,5.40
2023-03-11T07:48:07.071Z,4.50
2023-03-11T07:49:07.074Z,5.90
2023-03-11T07:50:07.048Z,4.70
2023-03-11T07:51:07.049Z,7.10
2023-03-11T07:52:07.058Z,4.20
2023-03-11T07:53:06.970Z,5.30
2023-03-11T07:54:06.981Z,3.40
2023-03-11T07:55:06.966Z,4.40
2023-03-11T07:56:06.954Z,5.10
2023-03-11T07:57:06.986Z,4.50
2023-03-11T07:58:06.904Z,5.10
2023-03-11T07:59:06.919Z,5.00
2023-03-11T08:00:06.918Z,3.80
2023-03-11T08:01:06.894Z,4.90
2023-03-11T08:02:07.064Z,5.30
2023-03-11T08:03:06.853Z,6.40
2023-03-11T08:04:06.867Z,5.90
2023-03-11T08:05:06.834Z,5.30
2023-03-11T08:06:06.834Z,5.80
2023-03-11T08:07:06.837Z,7.90
2023-03-11T08:08:06.872Z,4.80
2023-03-11T08:09:06.818Z,5.10
2023-03-11T08:10:06.794Z,5.10
2023-03-11T08:11:06.779Z,3.60
2023-03-11T08:12:06.758Z,6.60
2023-03-11T08:13:06.775Z,4.10
2023-03-11T08:14:06.754Z,4.10
2023-03-11T08:15:06.714Z,5.50
2023-03-11T08:16:06.769Z,5.30
2023-03-11T08:17:06.717Z,5.10
2023-03-11T08:18:06.731Z,3.60
2023-03-11T08:19:06.678Z,3.20
2023-03-11T08:20:06.660Z,7.90
2023-03-11T08:21:06.661Z,8.50
2023-03-11T08:22:06.628Z,3.60
2023-03-11T08:23:06.670Z,5.30
2023-03-11T08:24:07.028Z,3.80
2023-03-11T08:25:06.632Z,4.10
2023-03-11T08:26:06.592Z,2.10
2023-03-11T08:27:06.610Z,4.70
2023-03-11T08:28:06.593Z,4.70
2023-03-11T08:29:06.562Z,4.80
2023-03-11T08:30:06.546Z,5.60
2023-03-11T08:31:06.581Z,3.50
2023-03-11T08:32:06.528Z,2.20
2023-03-11T08:33:06.536Z,4.90
2023-03-11T08:34:06.537Z,4.60
2023-03-11T08:35:06.472Z,5.50
2023-03-11T08:36:06.533Z,5.20
2023-03-11T08:37:06.480Z,5.60
2023-03-11T08:38:06.498Z,5.30
2023-03-11T08:39:06.532Z,5.70
2023-03-11T08:40:06.429Z,3.60
2023-03-11T08:41:06.410Z,5.80
2023-03-11T08:42:06.426Z,4.00
2023-03-11T08:43:06.384Z,4.40
2023-03-11T08:44:06.389Z,3.00
2023-03-11T08:45:06.385Z,4.20
2023-03-11T08:46:06.418Z,4.20
2023-03-11T08:47:06.367Z,3.20
2023-03-11T08:48:06.328Z,5.50
2023-03-11T08:49:06.300Z,4.80
2023-03-11T08:50:06.302Z,4.80
2023-03-11T08:51:06.287Z,5.30
2023-03-11T08:52:06.280Z,5.10
2023-03-11T08:53:06.329Z,4.60
2023-03-11T08:54:06.244Z,4.40
2023-03-11T08:55:06.254Z,4.60
2023-03-11T08:56:06.236Z,4.00
2023-03-11T08:57:06.228Z,6.80
2023-03-11T08:58:06.251Z,3.00
2023-03-11T08:59:06.233Z,3.30
2023-03-11T09:00:06.186Z,3.40
2023-03-11T09:01:06.176Z,4.20
2023-03-11T09:02:06.193Z,4.20
2023-03-11T09:03:06.188Z,4.60
2023-03-11T09:04:06.184Z,4.50
2023-03-11T09:05:06.118Z,6.50
2023-03-11T09:06:06.169Z,7.00
2023-03-11T09:07:06.129Z,7.40
2023-03-11T09:08:06.095Z,4.00
2023-03-11T09:09:06.063Z,5.20
2023-03-11T09:10:06.077Z,4.40
2023-03-11T09:11:06.067Z,4.30
2023-03-11T09:12:06.068Z,5.90
2023-03-11T09:13:06.031Z,3.90
2023-03-11T09:14:06.022Z,3.30
2023-03-11T09:15:06.039Z,3.60
2023-03-11T09:16:06.078Z,3.80
2023-03-11T09:17:05.997Z,4.70
2023-03-11T09:18:05.974Z,3.10
2023-03-11T09:19:05.982Z,4.10
2023-03-11T09:20:05.980Z,3.60
2023-03-11T09:21:05.945Z,5.10
2023-03-11T09:22:05.926Z,9.50
2023-03-11T09:23:05.900Z,7.40
2023-03-11T09:24:05.889Z,5.10
2023-03-11T09:25:05.900Z,4.70
2023-03-11T09:26:05.903Z,4.30
2023-03-11T09:27:05.882Z,5.70
2023-03-11T09:28:05.840Z,3.40
2023-03-11T09:29:05.836Z,5.20
2023-03-11T09:30:05.841Z,3.50
2023-03-11T09:31:05.887Z,5.20
2023-03-11T09:32:05.805Z,2.80
2023-03-11T09:33:05.821Z,4.00
2023-03-11T09:34:05.806Z,6.10
2023-03-11T09:35:05.776Z,5.00
2023-03-11T09:36:05.849Z,4.10
2023-03-11T09:37:05.768Z,5.90
2023-03-11T09:38:05.722Z,5.50
2023-03-11T09:39:05.720Z,3.70
2023-03-11T09:40:05.728Z,5.50
2023-03-11T09:41:05.697Z,3.30
2023-03-11T09:42:05.721Z,4.40
2023-03-11T09:43:05.682Z,6.70
2023-03-11T09:44:05.689Z,5.60
2023-03-11T09:45:05.658Z,4.00
2023-03-11T09:46:05.639Z,4.10
2023-03-11T09:47:05.703Z,4.70
2023-03-11T09:48:05.605Z,5.80
2023-03-11T09:49:05.599Z,6.00
2023-03-11T09:50:05.609Z,3.90
2023-03-11T09:51:05.568Z,5.90
2023-03-11T09:52:05.545Z,8.80
2023-03-11T09:53:05.566Z,6.70
2023-03-11T09:54:05.548Z,5.80
2023-03-11T09:55:05.549Z,5.20
2023-03-11T09:56:05.591Z,4.70
2023-03-11T09:57:05.528Z,5.40
2023-03-11T09:58:05.508Z,6.80
2023-03-11T09:59:05.501Z,5.00
2023-03-11T10:00:05.486Z,4.00
2023-03-11T10:01:05.501Z,5.00
2023-03-11T10:02:05.458Z,4.30
2023-03-11T10:03:05.499Z,4.10
2023-03-11T10:04:05.491Z,4.20
2023-03-11T10:05:05.430Z,7.60
2023-03-11T10:06:05.425Z,5.30
2023-03-11T10:07:05.367Z,7.60
2023-03-11T10:08:05.383Z,5.20
2023-03-11T10:09:05.378Z,6.10
2023-03-11T10:10:05.351Z,5.50
2023-03-11T10:11:05.385Z,5.30
2023-03-11T10:12:05.332Z,5.30
2023-03-11T10:13:05.323Z,5.30
2023-03-11T10:14:05.306Z,5.40
2023-03-11T10:15:05.331Z,4.00
2023-03-11T10:16:05.300Z,7.40
2023-03-11T10:17:05.249Z,4.40
2023-03-11T10:18:05.273Z,5.30
2023-03-11T10:19:05.228Z,5.50
2023-03-11T10:20:05.278Z,6.60
2023-03-11T10:21:05.234Z,6.60
2023-03-11T10:22:05.212Z,4.00
2023-03-11T10:23:05.190Z,5.60
2023-03-11T10:24:05.160Z,5.10
2023-03-11T10:25:05.196Z,5.50
2023-03-11T10:26:05.188Z,3.90
2023-03-11T10:27:05.173Z,5.60
2023-03-11T10:28:05.135Z,5.20
2023-03-11T10:29:05.122Z,6.40
2023-03-11T10:30:05.110Z,7.70
2023-03-11T10:31:05.125Z,3.70
2023-03-11T10:32:05.135Z,4.30
2023-03-11T10:33:05.063Z,6.10
2023-03-11T10:34:05.043Z,4.90
2023-03-11T10:35:05.056Z,6.50
2023-03-11T10:36:05.086Z,5.20
2023-03-11T10:37:05.025Z,6.20
2023-03-11T10:38:05.055Z,8.60
2023-03-11T10:39:05.015Z,8.80
2023-03-11T10:40:04.993Z,6.60
2023-03-11T10:41:04.981Z,5.50
2023-03-11T10:42:05.006Z,6.90
2023-03-11T10:43:04.992Z,6.40
2023-03-11T10:44:04.939Z,7.80
2023-03-11T10:45:04.925Z,4.30
2023-03-11T10:46:04.957Z,4.30
2023-03-11T10:47:04.919Z,6.10
2023-03-11T10:48:04.919Z,5.50
2023-03-11T10:49:04.912Z,7.30
2023-03-11T10:50:04.868Z,5.80
2023-03-11T10:51:04.864Z,5.70
2023-03-11T10:52:04.861Z,5.00
2023-03-11T10:53:04.875Z,6.00
2023-03-11T10:54:04.826Z,5.80
2023-03-11T10:55:04.852Z,6.10
2023-03-11T10:56:04.815Z,6.00
2023-03-11T10:57:04.790Z,5.10
2023-03-11T10:58:04.770Z,6.40
2023-03-11T10:59:04.769Z,7.40
2023-03-11T11:00:04.769Z,4.40
2023-03-11T11:01:04.826Z,6.70
2023-03-11T11:02:04.776Z,6.70
2023-03-11T11:03:04.717Z,5.50
2023-03-11T11:04:04.733Z,4.20
2023-03-11T11:05:04.695Z,3.70
2023-03-11T11:06:04.702Z,8.80
2023-03-11T11:07:04.705Z,4.90
2023-03-11T11:08:04.651Z,6.60
2023-03-11T11:09:04.632Z,5.60
2023-03-11T11:10:04.647Z,5.00
2023-03-11T11:11:04.603Z,5.50
2023-03-11T11:12:04.596Z,4.60
2023-03-11T11:13:04.637Z,4.70
2023-03-11T11:14:04.596Z,4.70
2023-03-11T11:15:04.564Z,5.20
2023-03-11T11:16:04.568Z,6.90
2023-03-11T11:17:04.549Z,6.40
2023-03-11T11:18:04.547Z,7.40
2023-03-11T11:19:04.559Z,5.50
2023-03-11T11:20:04.509Z,4.00
2023-03-11T11:21:04.562Z,5.80
2023-03-11T11:22:04.498Z,5.80
2023-03-11T11:23:04.479Z,4.40
2023-03-11T11:24:04.473Z,5.50
2023-03-11T11:25:04.497Z,6.90
2023-03-11T11:26:04.481Z,6.50
2023-03-11T11:27:04.488Z,5.10
2023-03-11T11:28:04.442Z,4.20
2023-03-11T11:29:04.414Z,7.70
2023-03-11T11:30:04.427Z,5.90
2023-03-11T11:31:04.462Z,7.20
2023-03-11T11:32:04.394Z,6.00
2023-03-11T11:33:04.353Z,5.90
2023-03-11T11:34:04.333Z,3.90
2023-03-11T11:35:04.349Z,6.70
2023-03-11T11:36:04.346Z,6.20
2023-03-11T11:37:04.365Z,6.80
2023-03-11T11:38:04.333Z,6.60
2023-03-11T11:39:04.288Z,4.30
2023-03-11T11:40:04.258Z,4.30
2023-03-11T11:41:04.250Z,5.10
2023-03-11T11:42:04.270Z,6.30
2023-03-11T11:43:04.282Z,4.80
2023-03-11T11:44:04.237Z,5.10
2023-03-11T11:45:04.219Z,5.50
2023-03-11T11:46:04.222Z,7.20
2023-03-11T11:47:06.254Z,5.20
2023-03-11T11:48:04.187Z,6.20
2023-03-11T11:49:04.180Z,4.50
2023-03-11T11:50:04.144Z,4.70
2023-03-11T11:51:04.151Z,5.70
2023-03-11T11:52:04.131Z,5.90
2023-03-11T11:53:04.173Z,6.20
2023-03-11T11:54:04.100Z,6.10
2023-03-11T11:55:04.103Z,4.20
2023-03-11T11:56:04.098Z,5.10
2023-03-11T11:57:04.062Z,8.60
2023-03-11T11:58:04.089Z,5.80
2023-03-11T11:59:04.072Z,5.60
2023-03-11T12:00:04.059Z,7.60
2023-03-11T12:01:03.999Z,5.50
2023-03-11T12:02:04.004Z,4.90
2023-03-11T12:03:04.005Z,6.10
2023-03-11T12:04:04.036Z,6.10
2023-03-11T12:05:03.988Z,5.50
2023-03-11T12:06:04.004Z,5.30
2023-03-11T12:07:03.947Z,5.70
2023-03-11T12:08:03.941Z,5.60
2023-03-11T12:09:03.910Z,5.90
2023-03-11T12:10:19.828Z,6.80
2023-03-11T12:11:04.954Z,4.90
2023-03-11T12:12:03.885Z,5.30
2023-03-11T12:13:03.874Z,7.00
2023-03-11T12:14:03.875Z,5.70
2023-03-11T12:15:03.886Z,6.40
2023-03-11T12:16:03.952Z,5.10
2023-03-11T12:17:04.402Z,4.10
2023-03-11T12:18:03.836Z,6.00
2023-03-11T12:19:03.785Z,5.10
2023-03-11T12:20:03.791Z,5.30
2023-03-11T12:21:03.776Z,5.50
2023-03-11T12:22:03.817Z,6.20
2023-03-11T12:23:03.755Z,6.20
2023-03-11T12:24:03.767Z,3.60
2023-03-11T12:25:03.738Z,5.70
2023-03-11T12:26:03.748Z,4.40
2023-03-11T12:27:03.686Z,4.60
2023-03-11T12:28:03.704Z,4.60
2023-03-11T12:29:03.714Z,4.10
2023-03-11T12:30:03.668Z,6.10
2023-03-11T12:31:03.722Z,4.20
2023-03-11T12:32:03.692Z,5.00
2023-03-11T12:33:03.661Z,4.10
2023-03-11T12:34:03.609Z,4.30
2023-03-11T12:35:03.597Z,6.70
2023-03-11T12:36:03.644Z,2.90
2023-03-11T12:37:03.569Z,3.60
2023-03-11T12:38:03.614Z,4.50
2023-03-11T12:39:03.561Z,4.50
2023-03-11T12:40:03.572Z,3.60
2023-03-11T12:41:03.588Z,3.90
2023-03-11T12:42:03.512Z,3.60
2023-03-11T12:43:03.514Z,5.50
2023-03-11T12:44:03.542Z,4.60
2023-03-11T12:45:03.519Z,4.00
2023-03-11T12:46:03.527Z,5.00
2023-03-11T12:47:03.533Z,4.10
2023-03-11T12:48:03.450Z,6.40
2023-03-11T12:49:03.495Z,4.10
2023-03-11T12:50:03.445Z,4.60
2023-03-11T12:51:03.420Z,4.90
2023-03-11T12:52:03.437Z,4.60
2023-03-11T12:53:03.390Z,4.30
2023-03-11T12:54:03.484Z,3.90
2023-03-11T12:55:03.396Z,3.00
2023-03-11T12:56:03.371Z,4.00
2023-03-11T12:57:03.346Z,6.30
2023-03-11T12:58:03.342Z,5.90
2023-03-11T12:59:03.326Z,6.00
2023-03-11T13:00:03.351Z,4.80
2023-03-11T13:01:03.317Z,5.70
2023-03-11T13:02:03.340Z,4.30
2023-03-11T13:03:03.400Z,4.70
2023-03-11T13:04:03.319Z,4.90
2023-03-11T13:05:03.285Z,5.50
2023-03-11T13:06:03.228Z,6.50
2023-03-11T13:07:03.241Z,4.50
2023-03-11T13:08:03.248Z,3.80
2023-03-11T13:09:03.215Z,4.80
2023-03-11T13:10:03.232Z,4.50
2023-03-11T13:11:03.187Z,4.10
2023-03-11T13:12:03.190Z,4.20
2023-03-11T13:13:03.166Z,5.50
2023-03-11T13:14:03.204Z,5.20
2023-03-11T13:15:03.151Z,4.80
2023-03-11T13:16:03.255Z,3.80
2023-03-11T13:17:03.102Z,5.40
2023-03-11T13:18:03.092Z,4.50